sensor_id;sensor_type;location;lat;lon;timestamp;temperature;humidity
77700;DHT22;66867;42.658;23.320;2023-09-30T00:00:00;18.4;64
77700;DHT22;66867;42.658;23.320;2023-09-30T00:01:00;18.4;64
77700;DHT22;66867;42.658;23.320;2023-09-30T00:02:00;18.4;64
77700;DHT22;66867;42.658;23.320;2023-09-30T00:03:00;18.4;64
77700;DHT22;66867;42.658;23.320;2023-09-30T00:04:00;18.4;64
77700;DHT22;66867;42.658;23.320;2023-09-30T00:05:00;18.4;64
77700;DHT22;66867;42.658;23.320;2023-09-30T00:06:00;18.4;64
77700;DHT22;66867;42.658;23.320;2023-09-30T00:07:00;18.4;64
77700;DHT22;66867;42.658;23.320;2023-09-30T00:08:00;18.4;65
77700;DHT22;66867;42.658;23.320;2023-09-30T00:09:00;18.4;64
77700;DHT22;66867;42.658;23.320;2023-09-30T00:10:01;18.4;64
77700;DHT22;66867;42.658;23.320;2023-09-30T00:11:00;18.4;64
77700;DHT22;66867;42.658;23.320;2023-09-30T00:12:00;18.3;64
77700;DHT22;66867;42.658;23.320;2023-09-30T00:13:00;18.3;64
77700;DHT22;66867;42.658;23.320;2023-09-30T00:14:00;18.3;64
77700;DHT22;66867;42.658;23.320;2023-09-30T00:15:00;18.4;64
77700;DHT22;66867;42.658;23.320;2023-09-30T00:16:00;18.4;64
77700;DHT22;66867;42.658;23.320;2023-09-30T00:17:00;18.4;65
77700;DHT22;66867;42.658;23.320;2023-09-30T00:18:00;18.4;64
77700;DHT22;66867;42.658;23.320;2023-09-30T00:19:00;18.4;65
77700;DHT22;66867;42.658;23.320;2023-09-30T00:20:00;18.4;65
77700;DHT22;66867;42.658;23.320;2023-09-30T00:21:00;18.4;66
77700;DHT22;66867;42.658;23.320;2023-09-30T00:22:00;18.4;65
77700;DHT22;66867;42.658;23.320;2023-09-30T00:23:00;18.5;65
77700;DHT22;66867;42.658;23.320;2023-09-30T00:24:00;18.5;65
77700;DHT22;66867;42.658;23.320;2023-09-30T00:25:00;18.5;65
77700;DHT22;66867;42.658;23.320;2023-09-30T00:26:00;18.5;65
77700;DHT22;66867;42.658;23.320;2023-09-30T00:27:00;18.5;65
77700;DHT22;66867;42.658;23.320;2023-09-30T00:28:00;18.5;64
77700;DHT22;66867;42.658;23.320;2023-09-30T00:29:00;18.5;64
77700;DHT22;66867;42.658;23.320;2023-09-30T00:30:00;18.5;64
77700;DHT22;66867;42.658;23.320;2023-09-30T00:31:00;18.5;64
77700;DHT22;66867;42.658;23.320;2023-09-30T00:32:00;18.5;64
77700;DHT22;66867;42.658;23.320;2023-09-30T00:33:00;18.5;64
77700;DHT22;66867;42.658;23.320;2023-09-30T00:34:00;18.5;64
77700;DHT22;66867;42.658;23.320;2023-09-30T00:35:01;18.5;64
77700;DHT22;66867;42.658;23.320;2023-09-30T00:36:05;18.5;65
77700;DHT22;66867;42.658;23.320;2023-09-30T00:37:00;18.5;65
77700;DHT22;66867;42.658;23.320;2023-09-30T00:38:00;18.5;65
77700;DHT22;66867;42.658;23.320;2023-09-30T00:39:00;18.5;65
77700;DHT22;66867;42.658;23.320;2023-09-30T00:40:00;18.5;65
77700;DHT22;66867;42.658;23.320;2023-09-30T00:41:00;18.5;65
77700;DHT22;66867;42.658;23.320;2023-09-30T00:42:00;18.5;65
77700;DHT22;66867;42.658;23.320;2023-09-30T00:43:00;18.5;64
77700;DHT22;66867;42.658;23.320;2023-09-30T00:44:00;18.5;65
77700;DHT22;66867;42.658;23.320;2023-09-30T00:45:00;18.5;65
77700;DHT22;66867;42.658;23.320;2023-09-30T00:46:18;18.5;65
77700;DHT22;66867;42.658;23.320;2023-09-30T00:47:00;18.5;65
77700;DHT22;66867;42.658;23.320;2023-09-30T00:48:00;18.5;65
77700;DHT22;66867;42.658;23.320;2023-09-30T00:49:00;18.5;65
77700;DHT22;66867;42.658;23.320;2023-09-30T00:50:00;18.5;65
77700;DHT22;66867;42.658;23.320;2023-09-30T00:51:00;18.5;65
77700;DHT22;66867;42.658;23.320;2023-09-30T00:52:00;18.5;65
77700;DHT22;66867;42.658;23.320;2023-09-30T00:53:00;18.5;65
77700;DHT22;66867;42.658;23.320;2023-09-30T00:54:00;18.5;65
77700;DHT22;66867;42.658;23.320;2023-09-30T00:55:00;18.5;65
77700;DHT22;66867;42.658;23.320;2023-09-30T00:56:00;18.5;65
77700;DHT22;66867;42.658;23.320;2023-09-30T00:57:00;18.5;65
77700;DHT22;66867;42.658;23.320;2023-09-30T00:58:00;18.5;66
77700;DHT22;66867;42.658;23.320;2023-09-30T00:59:00;18.5;65
77700;DHT22;66867;42.658;23.320;2023-09-30T01:00:00;18.5;65
77700;DHT22;66867;42.658;23.320;2023-09-30T01:01:00;18.5;66
77700;DHT22;66867;42.658;23.320;2023-09-30T01:02:00;18.5;66
77700;DHT22;66867;42.658;23.320;2023-09-30T01:03:00;18.5;66
77700;DHT22;66867;42.658;23.320;2023-09-30T01:04:00;18.5;66
77700;DHT22;66867;42.658;23.320;2023-09-30T01:05:00;18.5;66
77700;DHT22;66867;42.658;23.320;2023-09-30T01:06:00;18.5;66
77700;DHT22;66867;42.658;23.320;2023-09-30T01:07:00;18.5;66
77700;DHT22;66867;42.658;23.320;2023-09-30T01:08:01;18.5;66
77700;DHT22;66867;42.658;23.320;2023-09-30T01:09:00;18.5;67
77700;DHT22;66867;42.658;23.320;2023-09-30T01:10:00;18.5;67
77700;DHT22;66867;42.658;23.320;2023-09-30T01:11:00;18.5;67
77700;DHT22;66867;42.658;23.320;2023-09-30T01:12:00;18.5;67
77700;DHT22;66867;42.658;23.320;2023-09-30T01:13:00;18.5;67
77700;DHT22;66867;42.658;23.320;2023-09-30T01:14:00;18.5;66
77700;DHT22;66867;42.658;23.320;2023-09-30T01:15:00;18.5;66
77700;DHT22;66867;42.658;23.320;2023-09-30T01:16:04;18.5;66
77700;DHT22;66867;42.658;23.320;2023-09-30T01:17:00;18.5;67
77700;DHT22;66867;42.658;23.320;2023-09-30T01:18:00;18.5;66
77700;DHT22;66867;42.658;23.320;2023-09-30T01:19:00;18.6;66
77700;DHT22;66867;42.658;23.320;2023-09-30T01:20:00;18.5;66
77700;DHT22;66867;42.658;23.320;2023-09-30T01:21:03;18.6;66
77700;DHT22;66867;42.658;23.320;2023-09-30T01:22:00;18.6;66
77700;DHT22;66867;42.658;23.320;2023-09-30T01:23:00;18.5;67
77700;DHT22;66867;42.658;23.320;2023-09-30T01:24:00;18.5;67
77700;DHT22;66867;42.658;23.320;2023-09-30T01:25:00;18.5;67
77700;DHT22;66867;42.658;23.320;2023-09-30T01:26:02;18.6;66
77700;DHT22;66867;42.658;23.320;2023-09-30T01:27:00;18.5;66
77700;DHT22;66867;42.658;23.320;2023-09-30T01:28:00;18.5;66
77700;DHT22;66867;42.658;23.320;2023-09-30T01:29:00;18.5;66
77700;DHT22;66867;42.658;23.320;2023-09-30T01:30:00;18.5;66
77700;DHT22;66867;42.658;23.320;2023-09-30T01:31:00;18.5;66
77700;DHT22;66867;42.658;23.320;2023-09-30T01:32:00;18.5;66
77700;DHT22;66867;42.658;23.320;2023-09-30T01:33:00;18.5;66
77700;DHT22;66867;42.658;23.320;2023-09-30T01:34:00;18.6;65
77700;DHT22;66867;42.658;23.320;2023-09-30T01:35:00;18.6;65
77700;DHT22;66867;42.658;23.320;2023-09-30T01:36:00;18.6;65
77700;DHT22;66867;42.658;23.320;2023-09-30T01:37:00;18.5;64
77700;DHT22;66867;42.658;23.320;2023-09-30T01:38:00;18.5;64
77700;DHT22;66867;42.658;23.320;2023-09-30T01:39:00;18.5;64
77700;DHT22;66867;42.658;23.320;2023-09-30T01:40:00;18.5;64
77700;DHT22;66867;42.658;23.320;2023-09-30T01:41:00;18.5;64
77700;DHT22;66867;42.658;23.320;2023-09-30T01:42:00;18.5;65
77700;DHT22;66867;42.658;23.320;2023-09-30T01:43:00;18.5;65
77700;DHT22;66867;42.658;23.320;2023-09-30T01:44:00;18.5;65
77700;DHT22;66867;42.658;23.320;2023-09-30T01:45:01;18.5;65
77700;DHT22;66867;42.658;23.320;2023-09-30T01:46:00;18.5;65
77700;DHT22;66867;42.658;23.320;2023-09-30T01:47:00;18.5;65
77700;DHT22;66867;42.658;23.320;2023-09-30T01:48:00;18.5;65
77700;DHT22;66867;42.658;23.320;2023-09-30T01:49:00;18.5;65
77700;DHT22;66867;42.658;23.320;2023-09-30T01:50:00;18.5;65
77700;DHT22;66867;42.658;23.320;2023-09-30T01:51:00;18.5;65
77700;DHT22;66867;42.658;23.320;2023-09-30T01:52:00;18.5;65
77700;DHT22;66867;42.658;23.320;2023-09-30T01:53:00;18.5;65
77700;DHT22;66867;42.658;23.320;2023-09-30T01:54:00;18.5;65
77700;DHT22;66867;42.658;23.320;2023-09-30T01:55:00;18.5;65
77700;DHT22;66867;42.658;23.320;2023-09-30T01:56:00;18.5;65
77700;DHT22;66867;42.658;23.320;2023-09-30T01:57:00;18.5;65
77700;DHT22;66867;42.658;23.320;2023-09-30T01:58:00;18.5;65
77700;DHT22;66867;42.658;23.320;2023-09-30T01:59:00;18.5;65
77700;DHT22;66867;42.658;23.320;2023-09-30T02:00:00;18.5;65
77700;DHT22;66867;42.658;23.320;2023-09-30T02:01:03;18.5;65
77700;DHT22;66867;42.658;23.320;2023-09-30T02:02:00;18.5;65
77700;DHT22;66867;42.658;23.320;2023-09-30T02:03:00;18.5;65
77700;DHT22;66867;42.658;23.320;2023-09-30T02:04:00;18.5;65
77700;DHT22;66867;42.658;23.320;2023-09-30T02:05:00;18.5;65
77700;DHT22;66867;42.658;23.320;2023-09-30T02:06:00;18.5;65
77700;DHT22;66867;42.658;23.320;2023-09-30T02:07:00;18.5;65
77700;DHT22;66867;42.658;23.320;2023-09-30T02:08:00;18.5;65
77700;DHT22;66867;42.658;23.320;2023-09-30T02:09:00;18.5;66
77700;DHT22;66867;42.658;23.320;2023-09-30T02:10:00;18.5;66
77700;DHT22;66867;42.658;23.320;2023-09-30T02:11:00;18.5;66
77700;DHT22;66867;42.658;23.320;2023-09-30T02:12:00;18.5;66
77700;DHT22;66867;42.658;23.320;2023-09-30T02:13:00;18.5;66
77700;DHT22;66867;42.658;23.320;2023-09-30T02:14:01;18.5;66
77700;DHT22;66867;42.658;23.320;2023-09-30T02:15:00;18.5;67
77700;DHT22;66867;42.658;23.320;2023-09-30T02:16:00;18.5;66
77700;DHT22;66867;42.658;23.320;2023-09-30T02:17:00;18.5;66
77700;DHT22;66867;42.658;23.320;2023-09-30T02:18:00;18.5;66
77700;DHT22;66867;42.658;23.320;2023-09-30T02:19:00;18.4;66
77700;DHT22;66867;42.658;23.320;2023-09-30T02:20:00;18.4;66
77700;DHT22;66867;42.658;23.320;2023-09-30T02:21:00;18.4;66
77700;DHT22;66867;42.658;23.320;2023-09-30T02:22:00;18.4;66
77700;DHT22;66867;42.658;23.320;2023-09-30T02:23:00;18.5;66
77700;DHT22;66867;42.658;23.320;2023-09-30T02:24:00;18.4;66
77700;DHT22;66867;42.658;23.320;2023-09-30T02:25:00;18.4;66
77700;DHT22;66867;42.658;23.320;2023-09-30T02:26:00;18.4;67
77700;DHT22;66867;42.658;23.320;2023-09-30T02:27:00;18.4;67
77700;DHT22;66867;42.658;23.320;2023-09-30T02:28:00;18.4;67
77700;DHT22;66867;42.658;23.320;2023-09-30T02:29:00;18.4;67
77700;DHT22;66867;42.658;23.320;2023-09-30T02:30:00;18.4;67
77700;DHT22;66867;42.658;23.320;2023-09-30T02:31:00;18.4;67
77700;DHT22;66867;42.658;23.320;2023-09-30T02:32:00;18.4;67
77700;DHT22;66867;42.658;23.320;2023-09-30T02:33:00;18.4;68
77700;DHT22;66867;42.658;23.320;2023-09-30T02:34:00;18.4;68
77700;DHT22;66867;42.658;23.320;2023-09-30T02:35:00;18.4;67
77700;DHT22;66867;42.658;23.320;2023-09-30T02:36:00;18.4;67
77700;DHT22;66867;42.658;23.320;2023-09-30T02:37:00;18.4;67
77700;DHT22;66867;42.658;23.320;2023-09-30T02:38:00;18.4;68
77700;DHT22;66867;42.658;23.320;2023-09-30T02:39:00;18.4;68
77700;DHT22;66867;42.658;23.320;2023-09-30T02:40:00;18.4;68
77700;DHT22;66867;42.658;23.320;2023-09-30T02:41:00;18.3;68
77700;DHT22;66867;42.658;23.320;2023-09-30T02:42:00;18.3;67
77700;DHT22;66867;42.658;23.320;2023-09-30T02:43:00;18.4;68
77700;DHT22;66867;42.658;23.320;2023-09-30T02:44:00;18.3;67
77700;DHT22;66867;42.658;23.320;2023-09-30T02:45:00;18.3;68
77700;DHT22;66867;42.658;23.320;2023-09-30T02:46:00;18.3;68
77700;DHT22;66867;42.658;23.320;2023-09-30T02:47:00;18.3;67
77700;DHT22;66867;42.658;23.320;2023-09-30T02:48:00;18.2;67
77700;DHT22;66867;42.658;23.320;2023-09-30T02:49:01;18.2;67
77700;DHT22;66867;42.658;23.320;2023-09-30T02:50:00;18.3;67
77700;DHT22;66867;42.658;23.320;2023-09-30T02:51:00;18.3;67
77700;DHT22;66867;42.658;23.320;2023-09-30T02:52:00;18.2;68
77700;DHT22;66867;42.658;23.320;2023-09-30T02:53:00;18.2;68
77700;DHT22;66867;42.658;23.320;2023-09-30T02:54:00;18.2;68
77700;DHT22;66867;42.658;23.320;2023-09-30T02:55:00;18.2;68
77700;DHT22;66867;42.658;23.320;2023-09-30T02:56:00;18.2;67
77700;DHT22;66867;42.658;23.320;2023-09-30T02:57:00;18.2;67
77700;DHT22;66867;42.658;23.320;2023-09-30T02:58:00;18.2;68
77700;DHT22;66867;42.658;23.320;2023-09-30T02:59:00;18.1;68
77700;DHT22;66867;42.658;23.320;2023-09-30T03:00:00;18.1;68
77700;DHT22;66867;42.658;23.320;2023-09-30T03:01:00;18.1;68
77700;DHT22;66867;42.658;23.320;2023-09-30T03:02:00;18.1;68
77700;DHT22;66867;42.658;23.320;2023-09-30T03:03:00;18.1;68
77700;DHT22;66867;42.658;23.320;2023-09-30T03:04:00;18.1;69
77700;DHT22;66867;42.658;23.320;2023-09-30T03:05:00;18.1;69
77700;DHT22;66867;42.658;23.320;2023-09-30T03:06:00;18.1;68
77700;DHT22;66867;42.658;23.320;2023-09-30T03:07:00;18.0;68
77700;DHT22;66867;42.658;23.320;2023-09-30T03:08:00;18.1;69
77700;DHT22;66867;42.658;23.320;2023-09-30T03:09:00;18.1;69
77700;DHT22;66867;42.658;23.320;2023-09-30T03:10:00;18.0;69
77700;DHT22;66867;42.658;23.320;2023-09-30T03:11:00;18.1;69
77700;DHT22;66867;42.658;23.320;2023-09-30T03:12:00;18.1;69
77700;DHT22;66867;42.658;23.320;2023-09-30T03:13:00;18.0;68
77700;DHT22;66867;42.658;23.320;2023-09-30T03:14:00;18.0;69
77700;DHT22;66867;42.658;23.320;2023-09-30T03:15:00;18.0;69
77700;DHT22;66867;42.658;23.320;2023-09-30T03:16:00;18.0;69
77700;DHT22;66867;42.658;23.320;2023-09-30T03:17:00;18.0;69
77700;DHT22;66867;42.658;23.320;2023-09-30T03:18:00;18.0;69
77700;DHT22;66867;42.658;23.320;2023-09-30T03:19:00;18.0;69
77700;DHT22;66867;42.658;23.320;2023-09-30T03:20:00;18.0;70
77700;DHT22;66867;42.658;23.320;2023-09-30T03:21:00;18.0;69
77700;DHT22;66867;42.658;23.320;2023-09-30T03:22:00;17.9;69
77700;DHT22;66867;42.658;23.320;2023-09-30T03:23:00;18.0;68
77700;DHT22;66867;42.658;23.320;2023-09-30T03:24:01;18.0;70
77700;DHT22;66867;42.658;23.320;2023-09-30T03:25:00;18.0;70
77700;DHT22;66867;42.658;23.320;2023-09-30T03:26:00;18.0;69
77700;DHT22;66867;42.658;23.320;2023-09-30T03:27:00;18.0;69
77700;DHT22;66867;42.658;23.320;2023-09-30T03:28:00;18.0;69
77700;DHT22;66867;42.658;23.320;2023-09-30T03:29:00;18.0;69
77700;DHT22;66867;42.658;23.320;2023-09-30T03:30:00;18.0;69
77700;DHT22;66867;42.658;23.320;2023-09-30T03:31:00;17.9;68
77700;DHT22;66867;42.658;23.320;2023-09-30T03:32:00;17.9;68
77700;DHT22;66867;42.658;23.320;2023-09-30T03:33:00;17.9;69
77700;DHT22;66867;42.658;23.320;2023-09-30T03:34:00;17.9;70
77700;DHT22;66867;42.658;23.320;2023-09-30T03:35:00;17.9;70
77700;DHT22;66867;42.658;23.320;2023-09-30T03:36:00;17.9;70
77700;DHT22;66867;42.658;23.320;2023-09-30T03:37:00;17.9;69
77700;DHT22;66867;42.658;23.320;2023-09-30T03:38:00;17.9;70
77700;DHT22;66867;42.658;23.320;2023-09-30T03:39:00;17.8;70
77700;DHT22;66867;42.658;23.320;2023-09-30T03:40:00;17.8;70
77700;DHT22;66867;42.658;23.320;2023-09-30T03:41:00;17.8;70
77700;DHT22;66867;42.658;23.320;2023-09-30T03:42:00;17.9;69
77700;DHT22;66867;42.658;23.320;2023-09-30T03:43:00;17.9;69
77700;DHT22;66867;42.658;23.320;2023-09-30T03:44:00;17.8;69
77700;DHT22;66867;42.658;23.320;2023-09-30T03:45:00;17.9;70
77700;DHT22;66867;42.658;23.320;2023-09-30T03:46:00;17.8;69
77700;DHT22;66867;42.658;23.320;2023-09-30T03:47:00;17.8;69
77700;DHT22;66867;42.658;23.320;2023-09-30T03:48:01;17.8;69
77700;DHT22;66867;42.658;23.320;2023-09-30T03:49:00;17.8;69
77700;DHT22;66867;42.658;23.320;2023-09-30T03:50:00;17.8;69
77700;DHT22;66867;42.658;23.320;2023-09-30T03:51:07;17.8;69
77700;DHT22;66867;42.658;23.320;2023-09-30T03:52:00;17.8;69
77700;DHT22;66867;42.658;23.320;2023-09-30T03:53:01;17.8;69
77700;DHT22;66867;42.658;23.320;2023-09-30T03:54:00;17.8;69
77700;DHT22;66867;42.658;23.320;2023-09-30T03:55:00;17.8;69
77700;DHT22;66867;42.658;23.320;2023-09-30T03:56:00;17.8;69
77700;DHT22;66867;42.658;23.320;2023-09-30T03:57:00;17.8;69
77700;DHT22;66867;42.658;23.320;2023-09-30T03:58:00;17.7;69
77700;DHT22;66867;42.658;23.320;2023-09-30T03:59:00;17.7;69
77700;DHT22;66867;42.658;23.320;2023-09-30T04:00:00;17.7;69
77700;DHT22;66867;42.658;23.320;2023-09-30T04:01:00;17.7;69
77700;DHT22;66867;42.658;23.320;2023-09-30T04:02:00;17.8;69
77700;DHT22;66867;42.658;23.320;2023-09-30T04:03:00;17.8;69
77700;DHT22;66867;42.658;23.320;2023-09-30T04:04:00;17.7;69
77700;DHT22;66867;42.658;23.320;2023-09-30T04:05:00;17.7;69
77700;DHT22;66867;42.658;23.320;2023-09-30T04:06:01;17.7;69
77700;DHT22;66867;42.658;23.320;2023-09-30T04:07:00;17.7;69
77700;DHT22;66867;42.658;23.320;2023-09-30T04:08:00;17.7;69
77700;DHT22;66867;42.658;23.320;2023-09-30T04:09:00;17.6;69
77700;DHT22;66867;42.658;23.320;2023-09-30T04:10:00;17.6;69
77700;DHT22;66867;42.658;23.320;2023-09-30T04:11:00;17.6;69
77700;DHT22;66867;42.658;23.320;2023-09-30T04:12:00;17.6;69
77700;DHT22;66867;42.658;23.320;2023-09-30T04:13:00;17.6;69
77700;DHT22;66867;42.658;23.320;2023-09-30T04:14:00;17.6;69
77700;DHT22;66867;42.658;23.320;2023-09-30T04:15:00;17.6;69
77700;DHT22;66867;42.658;23.320;2023-09-30T04:16:00;17.6;69
77700;DHT22;66867;42.658;23.320;2023-09-30T04:17:00;17.6;69
77700;DHT22;66867;42.658;23.320;2023-09-30T04:18:00;17.6;69
77700;DHT22;66867;42.658;23.320;2023-09-30T04:19:00;17.6;69
77700;DHT22;66867;42.658;23.320;2023-09-30T04:20:00;17.6;69
77700;DHT22;66867;42.658;23.320;2023-09-30T04:21:00;17.6;70
77700;DHT22;66867;42.658;23.320;2023-09-30T04:22:00;17.5;70
77700;DHT22;66867;42.658;23.320;2023-09-30T04:23:00;17.5;70
77700;DHT22;66867;42.658;23.320;2023-09-30T04:24:00;17.5;70
77700;DHT22;66867;42.658;23.320;2023-09-30T04:25:00;17.5;69
77700;DHT22;66867;42.658;23.320;2023-09-30T04:26:00;17.5;69
77700;DHT22;66867;42.658;23.320;2023-09-30T04:27:00;17.5;70
77700;DHT22;66867;42.658;23.320;2023-09-30T04:28:00;17.6;69
77700;DHT22;66867;42.658;23.320;2023-09-30T04:29:00;17.5;70
77700;DHT22;66867;42.658;23.320;2023-09-30T04:30:00;17.5;69
77700;DHT22;66867;42.658;23.320;2023-09-30T04:31:00;17.5;69
77700;DHT22;66867;42.658;23.320;2023-09-30T04:32:00;17.5;69
77700;DHT22;66867;42.658;23.320;2023-09-30T04:33:00;17.5;70
77700;DHT22;66867;42.658;23.320;2023-09-30T04:34:00;17.5;70
77700;DHT22;66867;42.658;23.320;2023-09-30T04:35:00;17.5;70
77700;DHT22;66867;42.658;23.320;2023-09-30T04:36:00;17.5;70
77700;DHT22;66867;42.658;23.320;2023-09-30T04:37:00;17.5;70
77700;DHT22;66867;42.658;23.320;2023-09-30T04:38:00;17.4;70
77700;DHT22;66867;42.658;23.320;2023-09-30T04:39:00;17.4;70
77700;DHT22;66867;42.658;23.320;2023-09-30T04:40:00;17.4;70
77700;DHT22;66867;42.658;23.320;2023-09-30T04:41:00;17.4;70
77700;DHT22;66867;42.658;23.320;2023-09-30T04:42:00;17.4;70
77700;DHT22;66867;42.658;23.320;2023-09-30T04:43:00;17.4;70
77700;DHT22;66867;42.658;23.320;2023-09-30T04:44:00;17.4;70
77700;DHT22;66867;42.658;23.320;2023-09-30T04:45:00;17.3;70
77700;DHT22;66867;42.658;23.320;2023-09-30T04:46:00;17.3;70
77700;DHT22;66867;42.658;23.320;2023-09-30T04:47:00;17.4;70
77700;DHT22;66867;42.658;23.320;2023-09-30T04:48:00;17.4;70
77700;DHT22;66867;42.658;23.320;2023-09-30T04:49:00;17.3;71
77700;DHT22;66867;42.658;23.320;2023-09-30T04:50:00;17.3;70
77700;DHT22;66867;42.658;23.320;2023-09-30T04:51:00;17.3;71
77700;DHT22;66867;42.658;23.320;2023-09-30T04:52:00;17.3;70
77700;DHT22;66867;42.658;23.320;2023-09-30T04:53:00;17.3;70
77700;DHT22;66867;42.658;23.320;2023-09-30T04:54:00;17.3;69
77700;DHT22;66867;42.658;23.320;2023-09-30T04:55:00;17.3;69
77700;DHT22;66867;42.658;23.320;2023-09-30T04:56:00;17.4;68
77700;DHT22;66867;42.658;23.320;2023-09-30T04:57:00;17.4;68
77700;DHT22;66867;42.658;23.320;2023-09-30T04:58:00;17.4;68
77700;DHT22;66867;42.658;23.320;2023-09-30T04:59:00;17.4;69
77700;DHT22;66867;42.658;23.320;2023-09-30T05:00:00;17.4;69
77700;DHT22;66867;42.658;23.320;2023-09-30T05:01:00;17.4;69
77700;DHT22;66867;42.658;23.320;2023-09-30T05:02:00;17.5;68
77700;DHT22;66867;42.658;23.320;2023-09-30T05:03:00;17.6;68
77700;DHT22;66867;42.658;23.320;2023-09-30T05:04:00;17.7;68
77700;DHT22;66867;42.658;23.320;2023-09-30T05:05:00;17.7;68
77700;DHT22;66867;42.658;23.320;2023-09-30T05:06:00;17.8;68
77700;DHT22;66867;42.658;23.320;2023-09-30T05:07:00;17.7;68
77700;DHT22;66867;42.658;23.320;2023-09-30T05:08:00;17.8;68
77700;DHT22;66867;42.658;23.320;2023-09-30T05:09:00;17.9;68
77700;DHT22;66867;42.658;23.320;2023-09-30T05:10:00;18.0;67
77700;DHT22;66867;42.658;23.320;2023-09-30T05:11:00;18.0;67
77700;DHT22;66867;42.658;23.320;2023-09-30T05:12:00;18.0;67
77700;DHT22;66867;42.658;23.320;2023-09-30T05:13:00;18.1;67
77700;DHT22;66867;42.658;23.320;2023-09-30T05:14:00;18.1;66
77700;DHT22;66867;42.658;23.320;2023-09-30T05:15:00;18.2;66
77700;DHT22;66867;42.658;23.320;2023-09-30T05:16:00;18.3;66
77700;DHT22;66867;42.658;23.320;2023-09-30T05:17:00;18.4;66
77700;DHT22;66867;42.658;23.320;2023-09-30T05:18:00;18.4;66
77700;DHT22;66867;42.658;23.320;2023-09-30T05:19:00;18.3;65
77700;DHT22;66867;42.658;23.320;2023-09-30T05:20:00;18.3;66
77700;DHT22;66867;42.658;23.320;2023-09-30T05:21:00;18.4;66
77700;DHT22;66867;42.658;23.320;2023-09-30T05:22:00;18.4;66
77700;DHT22;66867;42.658;23.320;2023-09-30T05:23:00;18.4;66
77700;DHT22;66867;42.658;23.320;2023-09-30T05:24:00;18.4;66
77700;DHT22;66867;42.658;23.320;2023-09-30T05:25:00;18.5;66
77700;DHT22;66867;42.658;23.320;2023-09-30T05:26:00;18.5;66
77700;DHT22;66867;42.658;23.320;2023-09-30T05:27:00;18.5;66
77700;DHT22;66867;42.658;23.320;2023-09-30T05:28:00;18.6;66
77700;DHT22;66867;42.658;23.320;2023-09-30T05:29:00;18.6;66
77700;DHT22;66867;42.658;23.320;2023-09-30T05:30:00;18.6;66
77700;DHT22;66867;42.658;23.320;2023-09-30T05:31:00;18.6;65
77700;DHT22;66867;42.658;23.320;2023-09-30T05:32:00;18.7;65
77700;DHT22;66867;42.658;23.320;2023-09-30T05:33:00;18.7;65
77700;DHT22;66867;42.658;23.320;2023-09-30T05:34:00;18.8;65
77700;DHT22;66867;42.658;23.320;2023-09-30T05:35:00;18.8;65
77700;DHT22;66867;42.658;23.320;2023-09-30T05:36:00;18.8;65
77700;DHT22;66867;42.658;23.320;2023-09-30T05:37:00;18.8;65
77700;DHT22;66867;42.658;23.320;2023-09-30T05:38:00;18.9;65
77700;DHT22;66867;42.658;23.320;2023-09-30T05:39:00;18.9;65
77700;DHT22;66867;42.658;23.320;2023-09-30T05:40:00;19.0;65
77700;DHT22;66867;42.658;23.320;2023-09-30T05:41:00;19.0;65
77700;DHT22;66867;42.658;23.320;2023-09-30T05:42:00;19.0;64
77700;DHT22;66867;42.658;23.320;2023-09-30T05:43:00;19.1;65
77700;DHT22;66867;42.658;23.320;2023-09-30T05:44:00;19.1;64
77700;DHT22;66867;42.658;23.320;2023-09-30T05:45:00;19.2;64
77700;DHT22;66867;42.658;23.320;2023-09-30T05:46:00;19.3;64
77700;DHT22;66867;42.658;23.320;2023-09-30T05:47:00;19.3;64
77700;DHT22;66867;42.658;23.320;2023-09-30T05:48:01;19.3;64
77700;DHT22;66867;42.658;23.320;2023-09-30T05:49:00;19.4;64
77700;DHT22;66867;42.658;23.320;2023-09-30T05:50:00;19.4;63
77700;DHT22;66867;42.658;23.320;2023-09-30T05:51:00;19.5;64
77700;DHT22;66867;42.658;23.320;2023-09-30T05:52:00;19.6;63
77700;DHT22;66867;42.658;23.320;2023-09-30T05:53:00;19.6;63
77700;DHT22;66867;42.658;23.320;2023-09-30T05:54:00;19.7;63
77700;DHT22;66867;42.658;23.320;2023-09-30T05:55:01;19.7;63
77700;DHT22;66867;42.658;23.320;2023-09-30T05:56:00;19.8;63
77700;DHT22;66867;42.658;23.320;2023-09-30T05:57:00;19.9;62
77700;DHT22;66867;42.658;23.320;2023-09-30T05:58:00;19.9;62
77700;DHT22;66867;42.658;23.320;2023-09-30T05:59:00;19.9;62
77700;DHT22;66867;42.658;23.320;2023-09-30T06:00:00;20.0;62
77700;DHT22;66867;42.658;23.320;2023-09-30T06:01:00;20.0;62
77700;DHT22;66867;42.658;23.320;2023-09-30T06:02:00;20.1;62
77700;DHT22;66867;42.658;23.320;2023-09-30T06:03:00;20.1;62
77700;DHT22;66867;42.658;23.320;2023-09-30T06:04:00;20.2;62
77700;DHT22;66867;42.658;23.320;2023-09-30T06:05:00;20.2;62
77700;DHT22;66867;42.658;23.320;2023-09-30T06:06:00;20.3;62
77700;DHT22;66867;42.658;23.320;2023-09-30T06:07:00;20.3;62
77700;DHT22;66867;42.658;23.320;2023-09-30T06:08:01;20.4;62
77700;DHT22;66867;42.658;23.320;2023-09-30T06:09:00;20.4;61
77700;DHT22;66867;42.658;23.320;2023-09-30T06:10:00;20.5;61
77700;DHT22;66867;42.658;23.320;2023-09-30T06:11:00;20.6;61
77700;DHT22;66867;42.658;23.320;2023-09-30T06:12:00;20.6;60
77700;DHT22;66867;42.658;23.320;2023-09-30T06:13:00;20.7;61
77700;DHT22;66867;42.658;23.320;2023-09-30T06:14:00;20.7;61
77700;DHT22;66867;42.658;23.320;2023-09-30T06:15:01;20.8;60
77700;DHT22;66867;42.658;23.320;2023-09-30T06:16:00;20.8;60
77700;DHT22;66867;42.658;23.320;2023-09-30T06:17:00;20.9;60
77700;DHT22;66867;42.658;23.320;2023-09-30T06:18:00;21.0;60
77700;DHT22;66867;42.658;23.320;2023-09-30T06:19:00;21.1;60
77700;DHT22;66867;42.658;23.320;2023-09-30T06:20:00;21.2;60
77700;DHT22;66867;42.658;23.320;2023-09-30T06:21:00;21.3;59
77700;DHT22;66867;42.658;23.320;2023-09-30T06:22:00;21.3;59
77700;DHT22;66867;42.658;23.320;2023-09-30T06:23:00;21.4;58
77700;DHT22;66867;42.658;23.320;2023-09-30T06:24:00;21.5;58
77700;DHT22;66867;42.658;23.320;2023-09-30T06:25:00;21.5;58
77700;DHT22;66867;42.658;23.320;2023-09-30T06:26:00;21.6;57
77700;DHT22;66867;42.658;23.320;2023-09-30T06:27:00;21.7;58
77700;DHT22;66867;42.658;23.320;2023-09-30T06:28:00;21.8;58
77700;DHT22;66867;42.658;23.320;2023-09-30T06:29:00;21.9;58
77700;DHT22;66867;42.658;23.320;2023-09-30T06:30:00;21.9;57
77700;DHT22;66867;42.658;23.320;2023-09-30T06:31:00;22.0;57
77700;DHT22;66867;42.658;23.320;2023-09-30T06:32:00;22.1;57
77700;DHT22;66867;42.658;23.320;2023-09-30T06:33:00;22.0;57
77700;DHT22;66867;42.658;23.320;2023-09-30T06:34:00;22.0;56
77700;DHT22;66867;42.658;23.320;2023-09-30T06:35:00;22.1;56
77700;DHT22;66867;42.658;23.320;2023-09-30T06:36:00;22.2;57
77700;DHT22;66867;42.658;23.320;2023-09-30T06:37:00;22.3;56